sensor_id;sensor_type;location;lat;lon;timestamp;temperature;humidity
21298;DHT22;10808;48.010;11.326;2023-04-15T00:02:16;7.30;99.90
21298;DHT22;10808;48.010;11.326;2023-04-15T00:04:46;7.30;99.90
21298;DHT22;10808;48.010;11.326;2023-04-15T00:07:13;7.30;99.90
21298;DHT22;10808;48.010;11.326;2023-04-15T00:09:42;7.20;99.90
21298;DHT22;10808;48.010;11.326;2023-04-15T00:12:10;7.20;99.90
21298;DHT22;10808;48.010;11.326;2023-04-15T00:14:37;7.20;99.90
21298;DHT22;10808;48.010;11.326;2023-04-15T00:17:03;7.20;99.90
21298;DHT22;10808;48.010;11.326;2023-04-15T00:19:30;7.30;99.90
21298;DHT22;10808;48.010;11.326;2023-04-15T00:21:57;7.20;99.90
21298;DHT22;10808;48.010;11.326;2023-04-15T00:24:23;7.20;99.90
21298;DHT22;10808;48.010;11.326;2023-04-15T00:26:49;7.30;99.90
21298;DHT22;10808;48.010;11.326;2023-04-15T00:29:15;7.30;99.90
21298;DHT22;10808;48.010;11.326;2023-04-15T00:31:44;7.20;99.90
21298;DHT22;10808;48.010;11.326;2023-04-15T00:34:10;7.30;99.90
21298;DHT22;10808;48.010;11.326;2023-04-15T00:36:36;7.20;99.90
21298;DHT22;10808;48.010;11.326;2023-04-15T00:39:02;7.20;99.90
21298;DHT22;10808;48.010;11.326;2023-04-15T00:41:28;7.10;99.90
21298;DHT22;10808;48.010;11.326;2023-04-15T00:43:54;7.10;99.90
21298;DHT22;10808;48.010;11.326;2023-04-15T00:46:21;7.10;99.90
21298;DHT22;10808;48.010;11.326;2023-04-15T00:48:47;7.10;99.90
21298;DHT22;10808;48.010;11.326;2023-04-15T00:51:14;7.00;99.90
21298;DHT22;10808;48.010;11.326;2023-04-15T00:53:40;7.00;99.90
21298;DHT22;10808;48.010;11.326;2023-04-15T00:56:06;7.00;99.90
21298;DHT22;10808;48.010;11.326;2023-04-15T00:58:32;7.00;99.90
21298;DHT22;10808;48.010;11.326;2023-04-15T01:00:58;6.90;99.90
21298;DHT22;10808;48.010;11.326;2023-04-15T01:03:24;6.90;99.90
21298;DHT22;10808;48.010;11.326;2023-04-15T01:05:50;6.90;99.90
21298;DHT22;10808;48.010;11.326;2023-04-15T01:08:29;6.80;99.90
21298;DHT22;10808;48.010;11.326;2023-04-15T01:10:57;6.80;99.90
21298;DHT22;10808;48.010;11.326;2023-04-15T01:13:26;6.80;99.90
21298;DHT22;10808;48.010;11.326;2023-04-15T01:15:53;6.80;99.90
21298;DHT22;10808;48.010;11.326;2023-04-15T01:18:20;6.80;99.90
21298;DHT22;10808;48.010;11.326;2023-04-15T01:20:47;6.70;99.90
21298;DHT22;10808;48.010;11.326;2023-04-15T01:23:13;6.70;99.90
21298;DHT22;10808;48.010;11.326;2023-04-15T01:25:39;6.70;99.90
21298;DHT22;10808;48.010;11.326;2023-04-15T01:28:06;6.70;99.90
21298;DHT22;10808;48.010;11.326;2023-04-15T01:30:34;6.70;99.90
21298;DHT22;10808;48.010;11.326;2023-04-15T01:33:00;6.60;99.90
21298;DHT22;10808;48.010;11.326;2023-04-15T01:35:26;6.60;99.90
21298;DHT22;10808;48.010;11.326;2023-04-15T01:37:53;6.60;99.90
21298;DHT22;10808;48.010;11.326;2023-04-15T01:40:20;6.60;99.90
21298;DHT22;10808;48.010;11.326;2023-04-15T01:42:47;6.60;99.90
21298;DHT22;10808;48.010;11.326;2023-04-15T01:45:13;6.60;99.90
21298;DHT22;10808;48.010;11.326;2023-04-15T01:47:39;6.60;99.90
21298;DHT22;10808;48.010;11.326;2023-04-15T01:50:06;6.60;99.90
21298;DHT22;10808;48.010;11.326;2023-04-15T01:52:32;6.60;99.90
21298;DHT22;10808;48.010;11.326;2023-04-15T01:54:58;6.60;99.90
21298;DHT22;10808;48.010;11.326;2023-04-15T01:57:24;6.60;99.90
21298;DHT22;10808;48.010;11.326;2023-04-15T01:59:51;6.60;99.90
21298;DHT22;10808;48.010;11.326;2023-04-15T02:02:17;6.60;99.90
21298;DHT22;10808;48.010;11.326;2023-04-15T02:04:43;6.60;99.90
21298;DHT22;10808;48.010;11.326;2023-04-15T02:07:09;6.60;99.90
21298;DHT22;10808;48.010;11.326;2023-04-15T02:09:35;6.60;99.90
21298;DHT22;10808;48.010;11.326;2023-04-15T02:12:02;6.60;99.90
21298;DHT22;10808;48.010;11.326;2023-04-15T02:14:28;6.60;99.90
21298;DHT22;10808;48.010;11.326;2023-04-15T02:16:54;6.60;99.90
21298;DHT22;10808;48.010;11.326;2023-04-15T02:19:21;6.60;99.90
21298;DHT22;10808;48.010;11.326;2023-04-15T02:21:47;6.70;99.90
21298;DHT22;10808;48.010;11.326;2023-04-15T02:24:13;6.70;99.90
21298;DHT22;10808;48.010;11.326;2023-04-15T02:26:39;6.70;99.90
21298;DHT22;10808;48.010;11.326;2023-04-15T02:29:05;6.70;99.90
21298;DHT22;10808;48.010;11.326;2023-04-15T02:31:31;6.80;99.90
21298;DHT22;10808;48.010;11.326;2023-04-15T02:34:01;6.80;99.90
21298;DHT22;10808;48.010;11.326;2023-04-15T02:36:30;6.70;99.90
21298;DHT22;10808;48.010;11.326;2023-04-15T02:38:56;6.70;99.90
21298;DHT22;10808;48.010;11.326;2023-04-15T02:41:22;6.70;99.90
21298;DHT22;10808;48.010;11.326;2023-04-15T02:43:51;6.70;99.90
21298;DHT22;10808;48.010;11.326;2023-04-15T02:46:18;6.70;99.90
21298;DHT22;10808;48.010;11.326;2023-04-15T02:48:44;6.60;99.90
21298;DHT22;10808;48.010;11.326;2023-04-15T02:51:11;6.70;99.90
21298;DHT22;10808;48.010;11.326;2023-04-15T02:53:37;6.60;99.90
21298;DHT22;10808;48.010;11.326;2023-04-15T02:56:03;6.60;99.90
21298;DHT22;10808;48.010;11.326;2023-04-15T02:58:30;6.60;99.90
21298;DHT22;10808;48.010;11.326;2023-04-15T03:00:56;6.60;99.90
21298;DHT22;10808;48.010;11.326;2023-04-15T03:03:22;6.50;99.90
21298;DHT22;10808;48.010;11.326;2023-04-15T03:05:49;6.50;99.90
21298;DHT22;10808;48.010;11.326;2023-04-15T03:08:15;6.50;99.90
21298;DHT22;10808;48.010;11.326;2023-04-15T03:10:41;6.50;99.90
21298;DHT22;10808;48.010;11.326;2023-04-15T03:13:07;6.50;99.90
21298;DHT22;10808;48.010;11.326;2023-04-15T03:15:33;6.50;99.90
21298;DHT22;10808;48.010;11.326;2023-04-15T03:18:00;6.40;99.90
21298;DHT22;10808;48.010;11.326;2023-04-15T03:20:26;6.40;99.90
21298;DHT22;10808;48.010;11.326;2023-04-15T03:22:52;6.40;99.90
21298;DHT22;10808;48.010;11.326;2023-04-15T03:25:18;6.40;99.90
21298;DHT22;10808;48.010;11.326;2023-04-15T03:27:44;6.40;99.90
21298;DHT22;10808;48.010;11.326;2023-04-15T03:30:11;6.40;99.90
21298;DHT22;10808;48.010;11.326;2023-04-15T03:32:37;6.40;99.90
21298;DHT22;10808;48.010;11.326;2023-04-15T03:35:03;6.30;99.90
21298;DHT22;10808;48.010;11.326;2023-04-15T03:37:29;6.30;99.90
21298;DHT22;10808;48.010;11.326;2023-04-15T03:39:55;6.30;99.90
21298;DHT22;10808;48.010;11.326;2023-04-15T03:42:22;6.30;99.90
21298;DHT22;10808;48.010;11.326;2023-04-15T03:44:48;6.30;99.90
21298;DHT22;10808;48.010;11.326;2023-04-15T03:47:14;6.30;99.90
21298;DHT22;10808;48.010;11.326;2023-04-15T03:49:40;6.30;99.90
21298;DHT22;10808;48.010;11.326;2023-04-15T03:52:06;6.30;99.90
21298;DHT22;10808;48.010;11.326;2023-04-15T03:54:32;6.20;99.90
21298;DHT22;10808;48.010;11.326;2023-04-15T03:56:58;6.30;99.90
21298;DHT22;10808;48.010;11.326;2023-04-15T03:59:24;6.30;99.90
21298;DHT22;10808;48.010;11.326;2023-04-15T04:01:50;6.30;99.90
21298;DHT22;10808;48.010;11.326;2023-04-15T04:04:16;6.30;99.90
21298;DHT22;10808;48.010;11.326;2023-04-15T04:06:42;6.30;99.90
21298;DHT22;10808;48.010;11.326;2023-04-15T04:09:08;6.30;99.90
21298;DHT22;10808;48.010;11.326;2023-04-15T04:11:34;6.20;99.90
21298;DHT22;10808;48.010;11.326;2023-04-15T04:14:01;6.30;99.90
21298;DHT22;10808;48.010;11.326;2023-04-15T04:16:27;6.30;99.90
21298;DHT22;10808;48.010;11.326;2023-04-15T04:18:53;6.20;99.90
21298;DHT22;10808;48.010;11.326;2023-04-15T04:21:19;6.20;99.90
21298;DHT22;10808;48.010;11.326;2023-04-15T04:23:47;6.20;99.90
21298;DHT22;10808;48.010;11.326;2023-04-15T04:26:13;6.30;99.90
21298;DHT22;10808;48.010;11.326;2023-04-15T04:28:39;6.20;99.90
21298;DHT22;10808;48.010;11.326;2023-04-15T04:31:06;6.20;99.90
21298;DHT22;10808;48.010;11.326;2023-04-15T04:33:33;6.30;99.90
21298;DHT22;10808;48.010;11.326;2023-04-15T04:35:59;6.30;99.90
21298;DHT22;10808;48.010;11.326;2023-04-15T04:38:26;6.30;99.90
21298;DHT22;10808;48.010;11.326;2023-04-15T04:40:52;6.30;99.90
21298;DHT22;10808;48.010;11.326;2023-04-15T04:43:18;6.30;99.90
21298;DHT22;10808;48.010;11.326;2023-04-15T04:45:44;6.30;99.90
21298;DHT22;10808;48.010;11.326;2023-04-15T04:48:10;6.30;99.90
21298;DHT22;10808;48.010;11.326;2023-04-15T04:50:36;6.30;99.90
21298;DHT22;10808;48.010;11.326;2023-04-15T04:53:02;6.30;99.90
21298;DHT22;10808;48.010;11.326;2023-04-15T04:55:28;6.20;99.90
21298;DHT22;10808;48.010;11.326;2023-04-15T04:57:54;6.30;99.90
21298;DHT22;10808;48.010;11.326;2023-04-15T05:00:21;6.20;99.90
21298;DHT22;10808;48.010;11.326;2023-04-15T05:02:47;6.30;99.90
21298;DHT22;10808;48.010;11.326;2023-04-15T05:05:13;6.30;99.90
21298;DHT22;10808;48.010;11.326;2023-04-15T05:07:39;6.30;99.90
21298;DHT22;10808;48.010;11.326;2023-04-15T05:10:06;6.30;99.90
21298;DHT22;10808;48.010;11.326;2023-04-15T05:12:32;6.30;99.90
21298;DHT22;10808;48.010;11.326;2023-04-15T05:14:58;6.40;99.90
21298;DHT22;10808;48.010;11.326;2023-04-15T05:17:25;6.30;99.90
21298;DHT22;10808;48.010;11.326;2023-04-15T05:19:51;6.40;99.90
21298;DHT22;10808;48.010;11.326;2023-04-15T05:22:18;6.40;99.90
21298;DHT22;10808;48.010;11.326;2023-04-15T05:24:44;6.40;99.90
21298;DHT22;10808;48.010;11.326;2023-04-15T05:27:10;6.50;99.90
21298;DHT22;10808;48.010;11.326;2023-04-15T05:29:36;6.50;99.90
21298;DHT22;10808;48.010;11.326;2023-04-15T05:32:03;6.50;99.90
21298;DHT22;10808;48.010;11.326;2023-04-15T05:34:29;6.50;99.90
21298;DHT22;10808;48.010;11.326;2023-04-15T05:36:55;6.50;99.90
21298;DHT22;10808;48.010;11.326;2023-04-15T05:39:21;6.60;99.90
21298;DHT22;10808;48.010;11.326;2023-04-15T05:41:47;6.60;99.90
21298;DHT22;10808;48.010;11.326;2023-04-15T05:44:13;6.60;99.90
21298;DHT22;10808;48.010;11.326;2023-04-15T05:46:39;6.60;99.90
21298;DHT22;10808;48.010;11.326;2023-04-15T05:49:05;6.60;99.90
21298;DHT22;10808;48.010;11.326;2023-04-15T05:51:31;6.70;99.90
21298;DHT22;10808;48.010;11.326;2023-04-15T05:53:57;6.70;99.90
21298;DHT22;10808;48.010;11.326;2023-04-15T05:56:23;6.70;99.90
21298;DHT22;10808;48.010;11.326;2023-04-15T05:58:52;6.80;99.90
21298;DHT22;10808;48.010;11.326;2023-04-15T06:01:18;6.80;99.90
21298;DHT22;10808;48.010;11.326;2023-04-15T06:03:44;6.80;99.90
21298;DHT22;10808;48.010;11.326;2023-04-15T06:06:10;6.80;99.90
21298;DHT22;10808;48.010;11.326;2023-04-15T06:08:36;6.80;99.90
21298;DHT22;10808;48.010;11.326;2023-04-15T06:11:02;6.80;99.90
21298;DHT22;10808;48.010;11.326;2023-04-15T06:13:28;6.80;99.90
21298;DHT22;10808;48.010;11.326;2023-04-15T06:15:54;6.80;99.90
21298;DHT22;10808;48.010;11.326;2023-04-15T06:18:20;6.90;99.90
21298;DHT22;10808;48.010;11.326;2023-04-15T06:20:48;6.90;99.90
21298;DHT22;10808;48.010;11.326;2023-04-15T06:23:14;6.90;99.90
21298;DHT22;10808;48.010;11.326;2023-04-15T06:25:40;7.00;99.90
21298;DHT22;10808;48.010;11.326;2023-04-15T06:28:06;7.00;99.90
21298;DHT22;10808;48.010;11.326;2023-04-15T06:30:32;7.00;99.90
21298;DHT22;10808;48.010;11.326;2023-04-15T06:32:59;7.00;99.90
21298;DHT22;10808;48.010;11.326;2023-04-15T06:35:25;7.10;99.90
21298;DHT22;10808;48.010;11.326;2023-04-15T06:37:52;7.10;99.90
21298;DHT22;10808;48.010;11.326;2023-04-15T06:40:18;7.10;99.90
21298;DHT22;10808;48.010;11.326;2023-04-15T06:42:44;7.10;99.90
21298;DHT22;10808;48.010;11.326;2023-04-15T06:45:10;7.20;99.90
21298;DHT22;10808;48.010;11.326;2023-04-15T06:47:36;7.20;99.90
21298;DHT22;10808;48.010;11.326;2023-04-15T06:50:03;7.10;99.90
21298;DHT22;10808;48.010;11.326;2023-04-15T06:52:30;7.20;99.90
21298;DHT22;10808;48.010;11.326;2023-04-15T06:54:56;7.20;99.90
21298;DHT22;10808;48.010;11.326;2023-04-15T06:57:24;7.20;99.90
21298;DHT22;10808;48.010;11.326;2023-04-15T06:59:50;7.30;99.90
21298;DHT22;10808;48.010;11.326;2023-04-15T07:02:18;7.30;99.90
21298;DHT22;10808;48.010;11.326;2023-04-15T07:04:44;7.30;99.90
21298;DHT22;10808;48.010;11.326;2023-04-15T07:07:11;7.40;99.90
21298;DHT22;10808;48.010;11.326;2023-04-15T07:09:37;7.40;99.90
21298;DHT22;10808;48.010;11.326;2023-04-15T07:12:03;7.40;99.90
21298;DHT22;10808;48.010;11.326;2023-04-15T07:14:29;7.40;99.90
21298;DHT22;10808;48.010;11.326;2023-04-15T07:16:55;7.50;99.90
21298;DHT22;10808;48.010;11.326;2023-04-15T07:19:22;7.50;99.90
21298;DHT22;10808;48.010;11.326;2023-04-15T07:21:48;7.60;99.90
21298;DHT22;10808;48.010;11.326;2023-04-15T07:24:14;7.70;99.90
21298;DHT22;10808;48.010;11.326;2023-04-15T07:26:43;7.70;99.90
21298;DHT22;10808;48.010;11.326;2023-04-15T07:29:09;7.80;99.90
21298;DHT22;10808;48.010;11.326;2023-04-15T07:31:36;7.90;99.90
21298;DHT22;10808;48.010;11.326;2023-04-15T07:34:02;8.00;99.90
21298;DHT22;10808;48.010;11.326;2023-04-15T07:36:29;8.00;99.90
21298;DHT22;10808;48.010;11.326;2023-04-15T07:38:55;8.00;99.90
21298;DHT22;10808;48.010;11.326;2023-04-15T07:41:22;8.10;99.90
21298;DHT22;10808;48.010;11.326;2023-04-15T07:43:48;8.10;99.90
21298;DHT22;10808;48.010;11.326;2023-04-15T07:46:14;8.10;99.90
21298;DHT22;10808;48.010;11.326;2023-04-15T07:48:40;8.20;99.90
21298;DHT22;10808;48.010;11.326;2023-04-15T07:51:07;8.30;99.90
21298;DHT22;10808;48.010;11.326;2023-04-15T07:53:33;8.30;99.90
21298;DHT22;10808;48.010;11.326;2023-04-15T07:55:59;8.40;99.90
21298;DHT22;10808;48.010;11.326;2023-04-15T07:58:26;8.40;99.90
21298;DHT22;10808;48.010;11.326;2023-04-15T08:00:52;8.50;99.90
21298;DHT22;10808;48.010;11.326;2023-04-15T08:03:21;8.50;99.90
21298;DHT22;10808;48.010;11.326;2023-04-15T08:05:47;8.60;99.90
21298;DHT22;10808;48.010;11.326;2023-04-15T08:08:13;8.60;99.90
21298;DHT22;10808;48.010;11.326;2023-04-15T08:10:39;8.70;99.90
21298;DHT22;10808;48.010;11.326;2023-04-15T08:13:05;8.80;99.90
21298;DHT22;10808;48.010;11.326;2023-04-15T08:15:32;8.80;99.90
21298;DHT22;10808;48.010;11.326;2023-04-15T08:17:58;8.90;99.90
21298;DHT22;10808;48.010;11.326;2023-04-15T08:20:27;8.90;99.90
21298;DHT22;10808;48.010;11.326;2023-04-15T08:22:54;8.90;99.90
21298;DHT22;10808;48.010;11.326;2023-04-15T08:25:20;9.00;99.90
21298;DHT22;10808;48.010;11.326;2023-04-15T08:27:46;9.10;99.90
21298;DHT22;10808;48.010;11.326;2023-04-15T08:30:12;9.10;99.90
21298;DHT22;10808;48.010;11.326;2023-04-15T08:32:41;9.20;99.90
21298;DHT22;10808;48.010;11.326;2023-04-15T08:35:07;9.20;99.90
21298;DHT22;10808;48.010;11.326;2023-04-15T08:37:33;9.40;99.90
21298;DHT22;10808;48.010;11.326;2023-04-15T08:40:00;9.40;99.90
21298;DHT22;10808;48.010;11.326;2023-04-15T08:42:36;9.50;99.90
21298;DHT22;10808;48.010;11.326;2023-04-15T08:45:08;9.60;99.90
21298;DHT22;10808;48.010;11.326;2023-04-15T08:47:36;9.70;99.90
21298;DHT22;10808;48.010;11.326;2023-04-15T08:50:04;9.80;99.90
21298;DHT22;10808;48.010;11.326;2023-04-15T08:52:31;9.80;99.90
21298;DHT22;10808;48.010;11.326;2023-04-15T08:54:57;10.00;99.90
21298;DHT22;10808;48.010;11.326;2023-04-15T08:57:28;10.00;99.70
21298;DHT22;10808;48.010;11.326;2023-04-15T08:59:57;10.00;99.80
21298;DHT22;10808;48.010;11.326;2023-04-15T09:02:24;10.00;99.70
21298;DHT22;10808;48.010;11.326;2023-04-15T09:04:51;10.00;99.10
21298;DHT22;10808;48.010;11.326;2023-04-15T09:07:17;10.00;99.40
21298;DHT22;10808;48.010;11.326;2023-04-15T09:09:43;10.10;99.90
21298;DHT22;10808;48.010;11.326;2023-04-15T09:12:13;10.10;99.40
21298;DHT22;10808;48.010;11.326;2023-04-15T09:14:39;10.00;99.70
21298;DHT22;10808;48.010;11.326;2023-04-15T09:17:09;10.00;99.80
21298;DHT22;10808;48.010;11.326;2023-04-15T09:19:35;10.00;99.60
21298;DHT22;10808;48.010;11.326;2023-04-15T09:22:01;10.00;99.80
21298;DHT22;10808;48.010;11.326;2023-04-15T09:24:38;10.00;99.70
21298;DHT22;10808;48.010;11.326;2023-04-15T09:27:05;10.00;99.90
21298;DHT22;10808;48.010;11.326;2023-04-15T09:29:31;10.00;99.70
21298;DHT22;10808;48.010;11.326;2023-04-15T09:32:13;10.00;99.50
21298;DHT22;10808;48.010;11.326;2023-04-15T09:34:40;10.00;99.80
21298;DHT22;10808;48.010;11.326;2023-04-15T09:37:06;10.10;99.80
21298;DHT22;10808;48.010;11.326;2023-04-15T09:39:47;10.10;99.80
21298;DHT22;10808;48.010;11.326;2023-04-15T09:42:15;10.20;99.90
21298;DHT22;10808;48.010;11.326;2023-04-15T09:44:42;10.20;99.90
21298;DHT22;10808;48.010;11.326;2023-04-15T09:47:09;10.20;99.90
21298;DHT22;10808;48.010;11.326;2023-04-15T09:49:35;10.20;99.30
21298;DHT22;10808;48.010;11.326;2023-04-15T09:52:01;10.20;99.90
21298;DHT22;10808;48.010;11.326;2023-04-15T09:54:33;10.30;99.90
21298;DHT22;10808;48.010;11.326;2023-04-15T09:57:04;10.40;99.90
21298;DHT22;10808;48.010;11.326;2023-04-15T09:59:31;10.50;99.70
21298;DHT22;10808;48.010;11.326;2023-04-15T10:01:57;10.40;99.20
21298;DHT22;10808;48.010;11.326;2023-04-15T10:04:24;10.40;99.40
21298;DHT22;10808;48.010;11.326;2023-04-15T10:06:50;10.50;99.50
21298;DHT22;10808;48.010;11.326;2023-04-15T10:09:17;10.60;99.40
21298;DHT22;10808;48.010;11.326;2023-04-15T10:11:45;10.70;99.20
21298;DHT22;10808;48.010;11.326;2023-04-15T10:14:13;10.80;99.20
21298;DHT22;10808;48.010;11.326;2023-04-15T10:16:41;10.80;98.70
21298;DHT22;10808;48.010;11.326;2023-04-15T10:19:11;10.80;98.50
21298;DHT22;10808;48.010;11.326;2023-04-15T10:21:40;10.80;97.70
21298;DHT22;10808;48.010;11.326;2023-04-15T10:24:06;10.80;97.80
21298;DHT22;10808;48.010;11.326;2023-04-15T10:26:33;10.90;97.70
21298;DHT22;10808;48.010;11.326;2023-04-15T10:29:00;10.90;97.70
21298;DHT22;10808;48.010;11.326;2023-04-15T10:31:26;11.00;97.30
21298;DHT22;10808;48.010;11.326;2023-04-15T10:33:52;11.00;96.80
21298;DHT22;10808;48.010;11.326;2023-04-15T10:36:18;11.00;96.10
21298;DHT22;10808;48.010;11.326;2023-04-15T10:38:45;11.00;95.70
21298;DHT22;10808;48.010;11.326;2023-04-15T10:41:25;11.00;96.40
21298;DHT22;10808;48.010;11.326;2023-04-15T10:44:00;11.00;96.30
21298;DHT22;10808;48.010;11.326;2023-04-15T10:46:44;11.00;95.50
21298;DHT22;10808;48.010;11.326;2023-04-15T10:49:23;11.00;95.00
21298;DHT22;10808;48.010;11.326;2023-04-15T10:51:57;11.00;94.60
21298;DHT22;10808;48.010;11.326;2023-04-15T10:56:51;11.00;94.60
21298;DHT22;10808;48.010;11.326;2023-04-15T10:59:32;11.00;94.70
21298;DHT22;10808;48.010;11.326;2023-04-15T11:02:06;11.10;94.30
21298;DHT22;10808;48.010;11.326;2023-04-15T11:04:55;11.10;94.40
21298;DHT22;10808;48.010;11.326;2023-04-15T11:07:48;11.20;94.40
21298;DHT22;10808;48.010;11.326;2023-04-15T11:12:47;11.20;93.80
21298;DHT22;10808;48.010;11.326;2023-04-15T11:15:35;11.20;93.70
21298;DHT22;10808;48.010;11.326;2023-04-15T11:18:18;11.20;94.10
21298;DHT22;10808;48.010;11.326;2023-04-15T11:20:56;11.30;94.10
21298;DHT22;10808;48.010;11.326;2023-04-15T11:23:38;11.40;94.30
21298;DHT22;10808;48.010;11.326;2023-04-15T11:26:08;11.50;94.00
21298;DHT22;10808;48.010;11.326;2023-04-15T11:28:46;11.50;93.40
21298;DHT22;10808;48.010;11.326;2023-04-15T11:31:17;11.60;93.40
21298;DHT22;10808;48.010;11.326;2023-04-15T11:33:58;11.70;94.10
21298;DHT22;10808;48.010;11.326;2023-04-15T11:36:31;11.70;93.00
21298;DHT22;10808;48.010;11.326;2023-04-15T11:38:58;11.80;93.50
21298;DHT22;10808;48.010;11.326;2023-04-15T11:41:24;11.80;93.50
21298;DHT22;10808;48.010;11.326;2023-04-15T11:43:51;11.80;93.50
21298;DHT22;10808;48.010;11.326;2023-04-15T11:46:18;11.80;93.50
21298;DHT22;10808;48.010;11.326;2023-04-15T11:48:45;11.80;93.70
21298;DHT22;10808;48.010;11.326;2023-04-15T11:51:12;11.90;93.50
21298;DHT22;10808;48.010;11.326;2023-04-15T11:56:06;11.90;94.10
21298;DHT22;10808;48.010;11.326;2023-04-15T11:58:34;11.80;93.80
21298;DHT22;10808;48.010;11.326;2023-04-15T12:01:04;11.80;93.80
21298;DHT22;10808;48.010;11.326;2023-04-15T12:03:37;11.70;93.80
21298;DHT22;10808;48.010;11.326;2023-04-15T12:13:55;11.40;94.30
21298;DHT22;10808;48.010;11.326;2023-04-15T12:16:26;11.20;94.50
21298;DHT22;10808;48.010;11.326;2023-04-15T12:18:54;11.10;94.80
21298;DHT22;10808;48.010;11.326;2023-04-15T12:21:32;10.90;95.80
21298;DHT22;10808;48.010;11.326;2023-04-15T12:24:02;10.70;96.40
21298;DHT22;10808;48.010;11.326;2023-04-15T12:26:33;10.50;97.00
21298;DHT22;10808;48.010;11.326;2023-04-15T12:29:06;10.40;97.70
21298;DHT22;10808;48.010;11.326;2023-04-15T12:31:34;10.30;98.10
21298;DHT22;10808;48.010;11.326;2023-04-15T12:34:01;10.10;98.60
21298;DHT22;10808;48.010;11.326;2023-04-15T12:36:27;10.10;98.70
21298;DHT22;10808;48.010;11.326;2023-04-15T12:38:55;10.10;99.00
21298;DHT22;10808;48.010;11.326;2023-04-15T12:41:21;10.10;99.60
21298;DHT22;10808;48.010;11.326;2023-04-15T12:43:47;10.20;99.40
21298;DHT22;10808;48.010;11.326;2023-04-15T12:46:13;10.30;99.30
21298;DHT22;10808;48.010;11.326;2023-04-15T12:48:40;10.40;99.20
21298;DHT22;10808;48.010;11.326;2023-04-15T12:51:06;10.40;99.40
21298;DHT22;10808;48.010;11.326;2023-04-15T12:53:32;10.50;99.00
21298;DHT22;10808;48.010;11.326;2023-04-15T12:55:58;10.50;99.10
21298;DHT22;10808;48.010;11.326;2023-04-15T12:58:24;10.50;99.20
21298;DHT22;10808;48.010;11.326;2023-04-15T13:00:50;10.60;99.10
21298;DHT22;10808;48.010;11.326;2023-04-15T13:03:17;10.60;99.20
21298;DHT22;10808;48.010;11.326;2023-04-15T13:05:43;10.70;99.00
21298;DHT22;10808;48.010;11.326;2023-04-15T13:08:09;10.70;98.50
21298;DHT22;10808;48.010;11.326;2023-04-15T13:10:35;10.80;98.50
21298;DHT22;10808;48.010;11.326;2023-04-15T13:13:01;10.90;99.10
21298;DHT22;10808;48.010;11.326;2023-04-15T13:15:28;10.90;97.90
21298;DHT22;10808;48.010;11.326;2023-04-15T13:17:54;10.90;97.80
21298;DHT22;10808;48.010;11.326;2023-04-15T13:20:21;11.00;97.90
21298;DHT22;10808;48.010;11.326;2023-04-15T13:22:47;11.10;98.00
21298;DHT22;10808;48.010;11.326;2023-04-15T13:25:13;11.20;97.20
21298;DHT22;10808;48.010;11.326;2023-04-15T13:27:39;11.20;97.00
21298;DHT22;10808;48.010;11.326;2023-04-15T13:30:06;11.30;97.40
21298;DHT22;10808;48.010;11.326;2023-04-15T13:32:32;11.40;97.60
21298;DHT22;10808;48.010;11.326;2023-04-15T13:34:58;11.50;97.20
21298;DHT22;10808;48.010;11.326;2023-04-15T13:37:28;11.60;97.40
21298;DHT22;10808;48.010;11.326;2023-04-15T13:39:54;11.60;96.30
21298;DHT22;10808;48.010;11.326;2023-04-15T13:42:22;11.50;96.10
21298;DHT22;10808;48.010;11.326;2023-04-15T13:44:49;11.50;96.10
21298;DHT22;10808;48.010;11.326;2023-04-15T13:47:18;11.40;95.70
21298;DHT22;10808;48.010;11.326;2023-04-15T13:49:44;11.40;96.50
21298;DHT22;10808;48.010;11.326;2023-04-15T13:52:10;11.30;96.40
21298;DHT22;10808;48.010;11.326;2023-04-15T13:54:37;11.30;96.80
21298;DHT22;10808;48.010;11.326;2023-04-15T13:57:03;11.40;96.50
21298;DHT22;10808;48.010;11.326;2023-04-15T13:59:29;11.30;96.60
21298;DHT22;10808;48.010;11.326;2023-04-15T14:01:55;11.30;96.70
21298;DHT22;10808;48.010;11.326;2023-04-15T14:04:21;11.30;96.50
21298;DHT22;10808;48.010;11.326;2023-04-15T14:06:47;11.30;96.60
21298;DHT22;10808;48.010;11.326;2023-04-15T14:09:14;11.30;96.90
21298;DHT22;10808;48.010;11.326;2023-04-15T14:11:40;11.20;96.50
21298;DHT22;10808;48.010;11.326;2023-04-15T14:14:06;11.30;96.30
21298;DHT22;10808;48.010;11.326;2023-04-15T14:16:33;11.20;95.60
21298;DHT22;10808;48.010;11.326;2023-04-15T14:19:00;11.20;95.90
21298;DHT22;10808;48.010;11.326;2023-04-15T14:21:26;11.20;96.10
21298;DHT22;10808;48.010;11.326;2023-04-15T14:23:53;11.20;96.00
21298;DHT22;10808;48.010;11.326;2023-04-15T14:26:19;11.20;96.80
21298;DHT22;10808;48.010;11.326;2023-04-15T14:28:45;11.10;96.20
21298;DHT22;10808;48.010;11.326;2023-04-15T14:31:13;11.00;96.40
21298;DHT22;10808;48.010;11.326;2023-04-15T14:33:39;11.00;96.30
21298;DHT22;10808;48.010;11.326;2023-04-15T14:36:06;11.00;95.90
21298;DHT22;10808;48.010;11.326;2023-04-15T14:38:36;11.00;96.30
21298;DHT22;10808;48.010;11.326;2023-04-15T14:41:06;10.90;95.90
21298;DHT22;10808;48.010;11.326;2023-04-15T14:43:33;10.90;95.50
21298;DHT22;10808;48.010;11.326;2023-04-15T14:45:59;10.90;95.50
21298;DHT22;10808;48.010;11.326;2023-04-15T14:48:25;10.90;95.60
21298;DHT22;10808;48.010;11.326;2023-04-15T14:50:52;10.90;95.60
21298;DHT22;10808;48.010;11.326;2023-04-15T14:53:18;10.90;95.50
21298;DHT22;10808;48.010;11.326;2023-04-15T14:55:44;10.80;95.70
21298;DHT22;10808;48.010;11.326;2023-04-15T14:58:11;10.80;95.40
21298;DHT22;10808;48.010;11.326;2023-04-15T15:00:38;10.80;95.90
21298;DHT22;10808;48.010;11.326;2023-04-15T15:03:08;10.80;95.80
21298;DHT22;10808;48.010;11.326;2023-04-15T15:05:38;10.70;95.90
21298;DHT22;10808;48.010;11.326;2023-04-15T15:08:08;10.60;96.30
21298;DHT22;10808;48.010;11.326;2023-04-15T15:10:35;10.60;96.00
21298;DHT22;10808;48.010;11.326;2023-04-15T15:13:05;10.50;96.10
21298;DHT22;10808;48.010;11.326;2023-04-15T15:15:32;10.50;96.40
21298;DHT22;10808;48.010;11.326;2023-04-15T15:17:59;10.50;96.50
21298;DHT22;10808;48.010;11.326;2023-04-15T15:20:25;10.50;96.70
21298;DHT22;10808;48.010;11.326;2023-04-15T15:22:51;10.40;96.60
21298;DHT22;10808;48.010;11.326;2023-04-15T15:25:17;10.40;96.60
21298;DHT22;10808;48.010;11.326;2023-04-15T15:27:43;10.30;96.70
21298;DHT22;10808;48.010;11.326;2023-04-15T15:30:10;10.30;96.60
21298;DHT22;10808;48.010;11.326;2023-04-15T15:32:40;10.30;96.90
21298;DHT22;10808;48.010;11.326;2023-04-15T15:35:07;10.10;97.00
21298;DHT22;10808;48.010;11.326;2023-04-15T15:37:34;10.10;97.70
21298;DHT22;10808;48.010;11.326;2023-04-15T15:40:03;10.00;97.90
21298;DHT22;10808;48.010;11.326;2023-04-15T15:42:30;9.80;98.80